Time;durP1;ratioP1;P1;durP2;ratioP2;P2;SDS_P1;SDS_P2;PMS_P1;PMS_P2;Temp;Humidity;BMP_temperature;BMP_pressure;BME280_temperature;BME280_humidity;BME280_pressure;Samples;Min_cycle;Max_cycle;Signal;HPM_P1;HPM_P2
2022/05/16 00:00:21;;;;;;;10.93;3.42;;;;;;;;;;5026822;28;96783;-73
2022/05/16 00:02:47;;;;;;;14.43;4.25;;;;;;;;;;5024363;28;97677;-72
2022/05/16 00:05:14;;;;;;;12.73;3.42;;;;;;;;;;5021042;28;95432;-71
2022/05/16 00:07:41;;;;;;;13.00;3.80;;;;;;;;;;5024941;28;96804;-72
2022/05/16 00:10:07;;;;;;;11.80;3.90;;;;;;;;;;5013634;28;97688;-75
2022/05/16 00:12:34;;;;;;;13.48;3.72;;;;;;;;;;5027273;28;95254;-73
2022/05/16 00:15:00;;;;;;;12.10;3.75;;;;;;;;;;5020915;28;96838;-76
2022/05/16 00:17:27;;;;;;;16.83;4.32;;;;;;;;;;5000081;28;95355;-73
2022/05/16 00:19:53;;;;;;;12.77;3.80;;;;;;;;;;5004394;28;96956;-72
2022/05/16 00:22:19;;;;;;;11.77;4.15;;;;;;;;;;5031677;28;96792;-72
2022/05/16 00:24:46;;;;;;;12.18;4.00;;;;;;;;;;5021853;28;95536;-73
2022/05/16 00:27:12;;;;;;;15.27;3.80;;;;;;;;;;5029793;28;97141;-74
2022/05/16 00:29:39;;;;;;;13.68;3.60;;;;;;;;;;5033171;28;96314;-74
2022/05/16 00:32:06;;;;;;;10.50;3.67;;;;;;;;;;5031519;28;95310;-74
2022/05/16 00:34:32;;;;;;;16.92;4.28;;;;;;;;;;5029274;28;96761;-74
2022/05/16 00:36:58;;;;;;;13.50;3.80;;;;;;;;;;5018843;28;97493;-73
2022/05/16 00:39:25;;;;;;;9.25;3.65;;;;;;;;;;5022083;28;96792;-74
2022/05/16 00:41:52;;;;;;;12.35;3.55;;;;;;;;;;5032927;28;97565;-73
2022/05/16 00:44:19;;;;;;;14.65;3.65;;;;;;;;;;5014662;28;95431;-74
2022/05/16 00:46:48;;;;;;;12.95;3.97;;;;;;;;;;5027359;28;96811;-73
2022/05/16 00:49:21;;;;;;;17.27;4.50;;;;;;;;;;5024421;28;97388;-73
2022/05/16 00:51:49;;;;;;;12.73;3.80;;;;;;;;;;5021219;28;95201;-74
2022/05/16 00:54:27;;;;;;;11.38;3.55;;;;;;;;;;5013763;28;97383;-73
2022/05/16 00:56:57;;;;;;;12.25;3.88;;;;;;;;;;5014768;28;97378;-73
2022/05/16 00:59:25;;;;;;;10.55;3.55;;;;;;;;;;5021168;28;96306;-75
2022/05/16 01:04:48;;;;;;;14.23;4.05;;;;;;;;;;5014055;28;96519;-73
2022/05/16 01:07:26;;;;;;;14.00;4.20;;;;;;;;;;5017994;28;96671;-73
2022/05/16 01:09:52;;;;;;;15.48;3.88;;;;;;;;;;5024698;28;97188;-74
2022/05/16 01:12:18;;;;;;;11.55;3.75;;;;;;;;;;5029750;28;95540;-73
2022/05/16 01:14:45;;;;;;;12.15;3.40;;;;;;;;;;5016290;28;96824;-73
2022/05/16 01:17:12;;;;;;;11.75;3.63;;;;;;;;;;4996087;28;96566;-73
2022/05/16 01:19:38;;;;;;;11.85;3.88;;;;;;;;;;5029833;28;95399;-74
2022/05/16 01:22:28;;;;;;;13.13;3.50;;;;;;;;;;5027583;28;98960;-75
2022/05/16 01:24:56;;;;;;;11.77;3.65;;;;;;;;;;5003465;28;96638;-73
2022/05/16 01:27:22;;;;;;;17.55;4.45;;;;;;;;;;5013693;28;96877;-73
2022/05/16 01:29:49;;;;;;;13.50;3.83;;;;;;;;;;5011627;28;97866;-74
2022/05/16 01:32:15;;;;;;;13.88;4.03;;;;;;;;;;5019185;28;95334;-73
2022/05/16 01:34:43;;;;;;;12.70;4.28;;;;;;;;;;5013691;28;97193;-73
2022/05/16 01:37:09;;;;;;;18.65;4.22;;;;;;;;;;5013818;28;97346;-73
2022/05/16 01:39:36;;;;;;;16.02;4.00;;;;;;;;;;5027071;28;95475;-74
2022/05/16 01:42:02;;;;;;;12.20;3.90;;;;;;;;;;5031022;28;95745;-72
2022/05/16 01:44:29;;;;;;;13.68;4.00;;;;;;;;;;5026218;28;97418;-74
2022/05/16 01:46:56;;;;;;;10.82;4.03;;;;;;;;;;5015040;28;95207;-75
2022/05/16 01:49:22;;;;;;;12.63;4.13;;;;;;;;;;5020776;28;97849;-75
2022/05/16 01:51:49;;;;;;;15.15;4.70;;;;;;;;;;5030822;28;95200;-75
2022/05/16 01:54:16;;;;;;;11.73;4.00;;;;;;;;;;5033861;28;96698;-73
2022/05/16 01:56:45;;;;;;;12.60;3.60;;;;;;;;;;5033572;28;97661;-73
2022/05/16 01:59:11;;;;;;;14.63;4.25;;;;;;;;;;5014401;28;95387;-73
2022/05/16 02:01:38;;;;;;;11.98;3.70;;;;;;;;;;5033879;28;97158;-73
2022/05/16 02:04:07;;;;;;;15.30;4.00;;;;;;;;;;5036507;28;97308;-73
2022/05/16 02:06:33;;;;;;;16.70;4.07;;;;;;;;;;5032865;28;96848;-73
2022/05/16 02:09:00;;;;;;;18.45;5.00;;;;;;;;;;5033681;28;97342;-73
2022/05/16 02:11:26;;;;;;;20.17;4.15;;;;;;;;;;5033262;28;97081;-73
2022/05/16 02:13:53;;;;;;;11.52;4.20;;;;;;;;;;5034094;28;96747;-73
2022/05/16 02:16:20;;;;;;;11.43;3.70;;;;;;;;;;5031966;28;96248;-73
2022/05/16 02:18:47;;;;;;;13.68;3.97;;;;;;;;;;5032835;28;95371;-75
2022/05/16 02:26:47;;;;;;;20.73;4.25;;;;;;;;;;5019465;28;95293;-76
2022/05/16 02:29:14;;;;;;;13.45;4.35;;;;;;;;;;5033214;28;97552;-75
2022/05/16 02:31:41;;;;;;;23.33;4.10;;;;;;;;;;5032196;28;95356;-76
2022/05/16 02:34:10;;;;;;;15.63;4.05;;;;;;;;;;5033732;28;96799;-73
2022/05/16 02:36:40;;;;;;;14.00;4.32;;;;;;;;;;5033229;28;97413;-76
2022/05/16 02:39:10;;;;;;;21.30;4.32;;;;;;;;;;5032763;28;95357;-74
2022/05/16 02:41:36;;;;;;;16.80;4.60;;;;;;;;;;5031485;28;95461;-76
2022/05/16 02:44:03;;;;;;;18.73;4.85;;;;;;;;;;5033016;28;96309;-73
2022/05/16 02:46:31;;;;;;;13.95;4.40;;;;;;;;;;5032530;28;95337;-75
2022/05/16 02:48:57;;;;;;;15.18;4.40;;;;;;;;;;5036602;28;96606;-75
2022/05/16 02:51:24;;;;;;;15.80;4.38;;;;;;;;;;5031820;28;95365;-75
2022/05/16 02:53:50;;;;;;;13.57;4.32;;;;;;;;;;5031516;28;96847;-78
2022/05/16 02:56:17;;;;;;;15.43;4.53;;;;;;;;;;5030749;28;97315;-73
2022/05/16 02:58:43;;;;;;;16.83;4.65;;;;;;;;;;5032997;28;95192;-76
2022/05/16 03:01:10;;;;;;;13.57;5.18;;;;;;;;;;5032966;28;96854;-76
2022/05/16 03:03:38;;;;;;;12.85;4.75;;;;;;;;;;5031593;28;97180;-76
2022/05/16 03:06:08;;;;;;;12.70;4.85;;;;;;;;;;5032943;28;95337;-75
2022/05/16 03:08:35;;;;;;;15.50;4.30;;;;;;;;;;5032276;28;95745;-76
2022/05/16 03:11:02;;;;;;;18.67;4.70;;;;;;;;;;5035958;28;97604;-76
2022/05/16 03:13:28;;;;;;;15.70;4.63;;;;;;;;;;5031149;28;96873;-76
2022/05/16 03:15:55;;;;;;;17.42;4.72;;;;;;;;;;5032567;28;96076;-73
2022/05/16 03:18:23;;;;;;;14.68;4.70;;;;;;;;;;5032292;28;95398;-76
2022/05/16 03:20:52;;;;;;;16.70;4.85;;;;;;;;;;5032023;28;95757;-74
2022/05/16 03:23:19;;;;;;;14.25;4.93;;;;;;;;;;5030984;28;95204;-76
2022/05/16 03:25:45;;;;;;;17.40;5.05;;;;;;;;;;5032921;28;95545;-76
2022/05/16 03:28:12;;;;;;;14.70;4.82;;;;;;;;;;5014334;28;96792;-73
2022/05/16 03:30:39;;;;;;;16.10;4.80;;;;;;;;;;5030225;28;96671;-74
2022/05/16 03:33:06;;;;;;;24.05;5.00;;;;;;;;;;5034311;28;95371;-75
2022/05/16 03:35:32;;;;;;;13.88;4.78;;;;;;;;;;5031787;28;97341;-73
2022/05/16 03:37:59;;;;;;;23.17;4.90;;;;;;;;;;5031354;28;95421;-73
2022/05/16 03:40:45;;;;;;;14.77;4.82;;;;;;;;;;5031660;28;96392;-74
2022/05/16 03:43:13;;;;;;;16.10;4.82;;;;;;;;;;5014027;28;97425;-73
2022/05/16 03:45:39;;;;;;;12.60;4.55;;;;;;;;;;5032273;28;95484;-73
2022/05/16 03:48:06;;;;;;;15.80;5.30;;;;;;;;;;5031014;28;96926;-74
2022/05/16 03:50:33;;;;;;;13.63;4.90;;;;;;;;;;5031404;28;96388;-73
2022/05/16 03:53:00;;;;;;;12.82;4.95;;;;;;;;;;5014293;28;95662;-73
2022/05/16 03:55:29;;;;;;;12.52;4.72;;;;;;;;;;5038015;28;96552;-73
2022/05/16 03:57:56;;;;;;;20.35;5.55;;;;;;;;;;5034089;28;95284;-73
2022/05/16 04:00:23;;;;;;;15.00;5.28;;;;;;;;;;5035492;28;97752;-73
2022/05/16 04:02:49;;;;;;;12.52;5.18;;;;;;;;;;5035144;28;97383;-74
2022/05/16 04:05:18;;;;;;;10.95;4.53;;;;;;;;;;5035222;28;95292;-73
2022/05/16 04:07:47;;;;;;;13.45;5.22;;;;;;;;;;5034208;28;97264;-74
2022/05/16 04:10:14;;;;;;;12.35;4.88;;;;;;;;;;5034940;28;97676;-74
2022/05/16 04:12:41;;;;;;;19.38;6.10;;;;;;;;;;5035758;28;95201;-73
2022/05/16 04:15:08;;;;;;;35.08;5.68;;;;;;;;;;5038847;28;97257;-74
2022/05/16 04:17:34;;;;;;;25.05;6.00;;;;;;;;;;5029746;28;95469;-73
2022/05/16 04:20:01;;;;;;;15.23;5.90;;;;;;;;;;5032699;28;96844;-73
2022/05/16 04:22:27;;;;;;;14.95;5.75;;;;;;;;;;5016812;28;97326;-74
2022/05/16 04:24:53;;;;;;;22.42;5.57;;;;;;;;;;5023852;28;95541;-74
2022/05/16 04:27:19;;;;;;;18.33;5.63;;;;;;;;;;5015050;28;98558;-74
2022/05/16 04:29:46;;;;;;;15.18;5.60;;;;;;;;;;5030719;28;97480;-76
2022/05/16 04:32:12;;;;;;;26.88;6.55;;;;;;;;;;5017363;28;95638;-74
2022/05/16 04:34:38;;;;;;;20.70;6.45;;;;;;;;;;5028268;28;96906;-76
2022/05/16 04:37:05;;;;;;;20.67;6.15;;;;;;;;;;5034273;28;97222;-74
2022/05/16 04:39:31;;;;;;;18.40;6.32;;;;;;;;;;5015460;28;96845;-74
2022/05/16 04:44:42;;;;;;;18.63;6.32;;;;;;;;;;5021785;28;95317;-76
2022/05/16 04:47:09;;;;;;;17.15;6.13;;;;;;;;;;5030776;28;97182;-76
2022/05/16 04:49:36;;;;;;;19.55;6.93;;;;;;;;;;5032777;28;97366;-76
2022/05/16 04:52:02;;;;;;;16.15;6.50;;;;;;;;;;5030920;28;95600;-78
2022/05/16 20:55:00;;;;;;;12.80;3.15;;;;;;;;;;5069833;27;1272467;-76
2022/05/16 20:57:26;;;;;;;12.50;3.30;;;;;;;;;;5083315;27;97392;-74
2022/05/16 20:59:52;;;;;;;11.63;3.28;;;;;;;;;;5076046;27;95229;-74
2022/05/16 21:02:19;;;;;;;15.98;3.63;;;;;;;;;;5069544;27;96791;-76
2022/05/16 21:04:45;;;;;;;11.52;3.22;;;;;;;;;;5070105;27;97605;-72
2022/05/16 21:07:12;;;;;;;15.40;3.13;;;;;;;;;;5086336;27;96928;-73
2022/05/16 21:09:38;;;;;;;17.08;3.25;;;;;;;;;;5081037;27;95768;-73
2022/05/16 21:12:05;;;;;;;14.77;3.50;;;;;;;;;;5086986;27;97395;-77
2022/05/16 21:14:32;;;;;;;15.75;3.95;;;;;;;;;;5072117;27;95303;-74
2022/05/16 21:16:58;;;;;;;17.30;3.63;;;;;;;;;;5084676;27;97383;-74
2022/05/16 21:19:25;;;;;;;15.15;3.30;;;;;;;;;;5078849;27;95402;-73
2022/05/16 21:21:51;;;;;;;12.63;2.90;;;;;;;;;;5088480;27;96448;-76
2022/05/16 21:24:17;;;;;;;13.40;3.38;;;;;;;;;;5067514;27;96551;-72
2022/05/16 21:26:44;;;;;;;15.80;3.40;;;;;;;;;;5069654;27;95286;-73
2022/05/16 21:29:10;;;;;;;13.25;3.30;;;;;;;;;;5085066;27;96367;-74
2022/05/16 21:31:36;;;;;;;16.58;3.42;;;;;;;;;;5078788;27;97360;-74
2022/05/16 21:34:02;;;;;;;18.50;3.40;;;;;;;;;;5080923;27;95597;-73
2022/05/16 21:36:29;;;;;;;14.63;3.35;;;;;;;;;;5087767;27;97291;-73
2022/05/16 21:38:55;;;;;;;14.18;3.55;;;;;;;;;;5075171;27;96184;-72
2022/05/16 21:41:21;;;;;;;14.55;3.60;;;;;;;;;;5090039;27;95683;-73
2022/05/16 21:46:37;;;;;;;15.63;3.47;;;;;;;;;;5069334;27;95330;-72
2022/05/16 21:49:03;;;;;;;15.95;3.28;;;;;;;;;;5087208;27;96911;-73
2022/05/16 21:51:30;;;;;;;15.90;3.33;;;;;;;;;;5080695;27;96048;-73
2022/05/16 21:53:56;;;;;;;20.05;3.97;;;;;;;;;;5082949;27;95192;-73
2022/05/16 21:56:22;;;;;;;15.02;3.72;;;;;;;;;;5083718;27;96875;-72
2022/05/16 21:58:49;;;;;;;14.07;3.85;;;;;;;;;;5089721;27;97335;-72
2022/05/16 22:01:19;;;;;;;16.23;3.67;;;;;;;;;;5088432;27;95711;-72
2022/05/16 22:03:46;;;;;;;20.65;3.97;;;;;;;;;;5086776;27;97336;-74
2022/05/16 22:06:12;;;;;;;19.80;4.38;;;;;;;;;;5074836;27;95965;-76
2022/05/16 22:08:38;;;;;;;11.48;4.22;;;;;;;;;;5070268;27;96738;-72
2022/05/16 22:11:05;;;;;;;17.90;4.13;;;;;;;;;;5062030;27;97531;-73
2022/05/16 22:13:31;;;;;;;12.23;3.85;;;;;;;;;;5066562;27;95117;-72
2022/05/16 22:15:57;;;;;;;14.27;3.97;;;;;;;;;;5074379;27;96748;-72
2022/05/16 22:18:24;;;;;;;15.80;4.10;;;;;;;;;;5071065;27;96286;-72
2022/05/16 22:20:50;;;;;;;12.05;4.05;;;;;;;;;;5070686;27;96592;-73
2022/05/16 22:23:17;;;;;;;20.90;4.47;;;;;;;;;;5072127;27;95952;-76
2022/05/16 22:25:43;;;;;;;10.63;3.78;;;;;;;;;;5073221;27;95223;-74
2022/05/16 22:28:10;;;;;;;22.30;4.45;;;;;;;;;;5075374;27;96743;-76
2022/05/16 22:30:42;;;;;;;19.50;4.43;;;;;;;;;;5073568;27;97656;-76
2022/05/16 22:33:08;;;;;;;14.60;3.80;;;;;;;;;;5076307;27;95165;-72
2022/05/16 22:35:37;;;;;;;17.45;4.10;;;;;;;;;;5075553;27;97154;-73
2022/05/16 22:38:03;;;;;;;18.65;4.35;;;;;;;;;;5075574;27;97646;-73
2022/05/16 22:40:30;;;;;;;13.68;4.50;;;;;;;;;;5074929;27;95301;-72
2022/05/16 22:42:57;;;;;;;18.85;5.22;;;;;;;;;;5078772;27;96986;-71
2022/05/16 22:45:23;;;;;;;12.77;4.60;;;;;;;;;;5075368;27;95425;-73
2022/05/16 22:47:50;;;;;;;13.05;4.35;;;;;;;;;;5074300;27;96774;-72
2022/05/16 22:50:19;;;;;;;17.70;4.45;;;;;;;;;;5073464;27;97349;-73
2022/05/16 22:52:46;;;;;;;19.83;5.05;;;;;;;;;;5075574;27;95476;-72
2022/05/16 22:55:15;;;;;;;14.13;4.10;;;;;;;;;;5070830;27;96744;-72
2022/05/16 22:57:42;;;;;;;19.80;4.65;;;;;;;;;;5074228;27;99021;-74
2022/05/16 23:00:10;;;;;;;14.45;4.13;;;;;;;;;;5074459;27;95508;-76
2022/05/16 23:05:24;;;;;;;19.40;4.43;;;;;;;;;;5077872;27;95518;-74
2022/05/16 23:07:54;;;;;;;16.25;4.45;;;;;;;;;;5074303;27;95206;-75
2022/05/16 23:10:21;;;;;;;15.52;4.43;;;;;;;;;;5070765;27;96665;-73
2022/05/16 23:12:47;;;;;;;17.40;4.22;;;;;;;;;;5058680;27;95228;-74
2022/05/16 23:15:14;;;;;;;20.60;5.05;;;;;;;;;;5053762;27;96208;-72
2022/05/16 23:17:45;;;;;;;16.23;4.63;;;;;;;;;;5058051;27;98423;-72
2022/05/16 23:20:12;;;;;;;15.63;3.90;;;;;;;;;;5074612;27;95325;-73
2022/05/16 23:22:38;;;;;;;14.68;4.03;;;;;;;;;;5074784;27;96906;-73
2022/05/16 23:25:05;;;;;;;21.65;5.32;;;;;;;;;;5077875;27;96923;-72
2022/05/16 23:27:32;;;;;;;17.50;4.78;;;;;;;;;;5073837;27;96908;-73
2022/05/16 23:29:58;;;;;;;21.23;5.60;;;;;;;;;;5074116;27;97483;-74
2022/05/16 23:32:25;;;;;;;20.58;5.35;;;;;;;;;;5074810;27;95107;-74
2022/05/16 23:34:52;;;;;;;19.13;4.60;;;;;;;;;;5075175;27;97108;-72
2022/05/16 23:37:18;;;;;;;17.83;5.10;;;;;;;;;;5073873;27;97429;-73
2022/05/16 23:39:45;;;;;;;21.95;4.25;;;;;;;;;;5074984;27;95207;-73
2022/05/16 23:42:13;;;;;;;14.40;4.88;;;;;;;;;;5074607;27;96438;-74
2022/05/16 23:44:42;;;;;;;16.45;4.50;;;;;;;;;;5072439;27;97682;-72
2022/05/16 23:47:09;;;;;;;13.90;5.30;;;;;;;;;;5078425;27;95184;-71
2022/05/16 23:49:39;;;;;;;15.27;4.65;;;;;;;;;;5073936;27;96016;-72
2022/05/16 23:52:06;;;;;;;15.93;4.95;;;;;;;;;;5074066;27;95311;-73
2022/05/16 23:54:33;;;;;;;15.50;4.25;;;;;;;;;;5073783;27;96779;-72
2022/05/16 23:56:59;;;;;;;15.60;4.80;;;;;;;;;;5074643;27;97237;-72
2022/05/16 23:59:28;;;;;;;13.63;4.43;;;;;;;;;;5073912;27;95597;-75
